Time;durP1;ratioP1;P1;durP2;ratioP2;P2;SDS_P1;SDS_P2;PMS_P1;PMS_P2;Temp;Humidity;BMP_temperature;BMP_pressure;BME280_temperature;BME280_humidity;BME280_pressure;Samples;Min_cycle;Max_cycle;Signal;HPM_P1;HPM_P2
2021/08/19 00:00:19;;;;;;;0.93;0.93;;;17.10;79.30;;;;;;5045458;28;20179;-74
2021/08/19 00:02:45;;;;;;;0.45;0.45;;;17.10;79.50;;;;;;5047158;28;20188;-74
2021/08/19 00:05:11;;;;;;;0.60;0.60;;;17.10;79.20;;;;;;5046424;28;20184;-74
2021/08/19 00:07:36;;;;;;;0.93;0.93;;;17.10;79.20;;;;;;5066139;28;20628;-74
2021/08/19 00:10:04;;;;;;;0.70;0.70;;;17.10;79.10;;;;;;5049769;28;20271;-74
2021/08/19 00:12:30;;;;;;;0.50;0.50;;;17.00;79.30;;;;;;5050458;28;21105;-74
2021/08/19 00:14:56;;;;;;;1.10;0.75;;;17.00;79.40;;;;;;5055657;28;20217;-74
2021/08/19 00:17:21;;;;;;;2.97;0.85;;;17.00;78.80;;;;;;5055437;28;20202;-74
2021/08/19 00:19:47;;;;;;;0.70;0.70;;;17.00;79.10;;;;;;5061016;28;20191;-74
2021/08/19 00:22:13;;;;;;;3.42;0.77;;;17.00;79.00;;;;;;5041067;28;20693;-74
2021/08/19 00:24:39;;;;;;;2.45;0.93;;;17.00;79.00;;;;;;5049150;28;20190;-74
2021/08/19 00:27:05;;;;;;;0.75;0.75;;;17.00;78.90;;;;;;5053771;28;20681;-74
2021/08/19 00:29:30;;;;;;;0.60;0.60;;;17.00;78.60;;;;;;5052068;28;20176;-74
2021/08/19 00:31:56;;;;;;;1.65;0.80;;;16.90;78.70;;;;;;5048527;28;20184;-74
2021/08/19 00:34:22;;;;;;;0.60;0.60;;;16.90;78.10;;;;;;5048177;28;20695;-74
2021/08/19 00:36:47;;;;;;;0.85;0.63;;;17.00;78.40;;;;;;5051109;28;20190;-75
2021/08/19 00:39:16;;;;;;;1.45;0.82;;;17.00;78.10;;;;;;5056688;28;20179;-75
2021/08/19 00:41:42;;;;;;;1.00;1.00;;;16.90;78.40;;;;;;5053490;28;20189;-74
2021/08/19 00:44:08;;;;;;;0.70;0.70;;;17.00;78.30;;;;;;5049730;28;20183;-75
2021/08/19 00:46:36;;;;;;;0.70;0.70;;;17.00;78.20;;;;;;5050882;28;20191;-75
2021/08/19 00:49:15;;;;;;;1.23;0.60;;;17.00;78.20;;;;;;5053816;28;20646;-75
2021/08/19 00:51:45;;;;;;;0.60;0.60;;;17.00;78.20;;;;;;5051789;28;20188;-74
2021/08/19 00:54:14;;;;;;;0.68;0.68;;;17.00;78.40;;;;;;5055456;28;20210;-73
2021/08/19 00:56:40;;;;;;;0.55;0.55;;;17.00;78.20;;;;;;5048248;28;20179;-74
2021/08/19 00:59:07;;;;;;;0.90;0.90;;;16.90;77.90;;;;;;5055210;28;20175;-74
2021/08/19 01:01:36;;;;;;;0.68;0.68;;;16.90;77.80;;;;;;5052425;28;20237;-74
2021/08/19 01:04:03;;;;;;;0.57;0.57;;;16.90;77.70;;;;;;5052638;28;20187;-73
2021/08/19 01:06:28;;;;;;;1.80;0.70;;;16.90;77.60;;;;;;5051918;28;20195;-73
2021/08/19 01:08:54;;;;;;;0.77;0.70;;;16.90;77.20;;;;;;5054752;28;20697;-74
2021/08/19 01:11:21;;;;;;;0.43;0.43;;;16.90;77.40;;;;;;5046364;28;20688;-74
2021/08/19 01:13:48;;;;;;;1.45;0.80;;;16.80;77.30;;;;;;5049620;28;20209;-75
2021/08/19 01:16:17;;;;;;;1.50;0.88;;;16.80;77.30;;;;;;5044351;28;20397;-74
2021/08/19 01:18:45;;;;;;;1.20;0.60;;;16.70;77.80;;;;;;5050450;28;20186;-75
2021/08/19 01:21:12;;;;;;;0.55;0.50;;;16.70;77.00;;;;;;5050408;28;20313;-74
2021/08/19 01:23:38;;;;;;;0.60;0.60;;;16.70;77.30;;;;;;5045809;28;20211;-74
2021/08/19 01:26:11;;;;;;;1.65;0.77;;;16.60;77.70;;;;;;5049825;28;20284;-74
2021/08/19 01:28:38;;;;;;;2.38;0.82;;;16.60;77.10;;;;;;5052342;28;20183;-74
2021/08/19 01:31:05;;;;;;;0.85;0.60;;;16.60;77.80;;;;;;5057273;28;20179;-74
2021/08/19 01:33:32;;;;;;;0.98;0.98;;;16.50;77.40;;;;;;5048089;28;20707;-74
2021/08/19 01:35:58;;;;;;;1.30;0.65;;;16.50;77.70;;;;;;5046705;28;21023;-74
2021/08/19 01:38:31;;;;;;;0.70;0.70;;;16.50;77.60;;;;;;5054891;28;20189;-74
2021/08/19 01:40:57;;;;;;;3.40;0.77;;;16.40;77.90;;;;;;5048004;28;20747;-75
2021/08/19 01:43:24;;;;;;;0.73;0.73;;;16.40;77.30;;;;;;5041911;28;20183;-76
2021/08/19 01:45:53;;;;;;;2.55;0.63;;;16.40;77.40;;;;;;5045721;28;20222;-75
2021/08/19 01:48:19;;;;;;;0.55;0.55;;;16.40;77.40;;;;;;5048337;28;20278;-74
2021/08/19 01:50:44;;;;;;;0.88;0.73;;;16.40;77.60;;;;;;5046625;28;20267;-74
2021/08/19 01:53:10;;;;;;;0.45;0.45;;;16.30;77.10;;;;;;5049648;28;20176;-74
2021/08/19 01:55:36;;;;;;;0.70;0.70;;;16.30;77.20;;;;;;5053955;28;20203;-74
2021/08/19 01:58:02;;;;;;;0.68;0.68;;;16.30;77.50;;;;;;5048255;28;20184;-74
2021/08/19 02:00:28;;;;;;;1.95;0.70;;;16.30;77.50;;;;;;5054804;28;20758;-74
2021/08/19 02:02:54;;;;;;;0.90;0.60;;;16.30;77.10;;;;;;5044167;28;20182;-74
2021/08/19 02:05:20;;;;;;;0.80;0.80;;;16.30;77.10;;;;;;5051740;28;20206;-74
2021/08/19 02:07:45;;;;;;;0.50;0.50;;;16.20;77.30;;;;;;5046963;28;20182;-74
2021/08/19 02:10:11;;;;;;;0.70;0.70;;;16.20;77.00;;;;;;5048463;28;20233;-75
2021/08/19 02:12:37;;;;;;;0.60;0.60;;;16.20;77.30;;;;;;5049105;28;20189;-74
2021/08/19 02:15:04;;;;;;;0.75;0.70;;;16.20;77.00;;;;;;5052027;28;20218;-75
2021/08/19 02:17:30;;;;;;;0.60;0.60;;;16.20;77.30;;;;;;5048518;28;20179;-74
2021/08/19 02:19:55;;;;;;;1.42;0.88;;;16.20;76.90;;;;;;5051096;28;20182;-74
2021/08/19 02:22:21;;;;;;;1.80;0.90;;;16.20;76.70;;;;;;5046416;28;20263;-74
2021/08/19 02:24:48;;;;;;;0.45;0.45;;;16.20;77.10;;;;;;5047015;28;20967;-74
2021/08/19 02:27:14;;;;;;;0.60;0.60;;;16.20;76.70;;;;;;5047788;28;20266;-74
2021/08/19 02:29:39;;;;;;;0.60;0.60;;;16.10;76.90;;;;;;5049987;28;20279;-74
2021/08/19 02:32:05;;;;;;;0.52;0.52;;;16.20;76.40;;;;;;5051237;28;20175;-75
2021/08/19 02:34:31;;;;;;;0.50;0.50;;;16.10;76.90;;;;;;5047229;28;20266;-75
2021/08/19 02:36:57;;;;;;;0.65;0.65;;;16.10;76.80;;;;;;5054085;28;20282;-75
2021/08/19 02:39:23;;;;;;;10.45;0.70;;;16.10;76.90;;;;;;5049250;28;20180;-75
2021/08/19 02:41:48;;;;;;;0.50;0.50;;;16.10;76.70;;;;;;5050397;28;20309;-76
2021/08/19 02:44:15;;;;;;;1.50;0.60;;;16.10;76.80;;;;;;5044001;28;20192;-75
2021/08/19 02:46:41;;;;;;;0.73;0.73;;;16.00;76.60;;;;;;5055311;28;20682;-75
2021/08/19 02:49:07;;;;;;;0.50;0.50;;;16.00;76.30;;;;;;5055548;28;20175;-74
2021/08/19 02:51:33;;;;;;;1.65;0.50;;;16.00;76.50;;;;;;5051136;28;20229;-75
2021/08/19 02:53:58;;;;;;;0.73;0.60;;;16.00;76.40;;;;;;5059301;28;20230;-75
2021/08/19 02:56:26;;;;;;;2.25;0.65;;;16.00;76.00;;;;;;5072713;28;20646;-75
2021/08/19 02:58:52;;;;;;;0.40;0.40;;;16.00;76.20;;;;;;5056587;28;20187;-76
2021/08/19 03:01:18;;;;;;;0.55;0.55;;;16.00;76.20;;;;;;5056986;28;20249;-75
2021/08/19 03:03:43;;;;;;;0.82;0.80;;;16.00;76.10;;;;;;5054424;28;20827;-75
2021/08/19 03:06:09;;;;;;;1.38;0.70;;;16.00;76.30;;;;;;5054351;28;20214;-75
2021/08/19 03:08:35;;;;;;;0.60;0.57;;;16.00;76.50;;;;;;5051573;28;20194;-75
2021/08/19 03:11:00;;;;;;;0.60;0.60;;;15.90;76.60;;;;;;5054670;28;20272;-75
2021/08/19 03:13:26;;;;;;;0.90;0.82;;;15.90;76.70;;;;;;5048859;28;21053;-75
2021/08/19 03:15:52;;;;;;;0.85;0.85;;;15.90;76.40;;;;;;5054745;28;20230;-74
2021/08/19 03:18:17;;;;;;;0.60;0.60;;;15.80;76.60;;;;;;5047965;28;20192;-74
2021/08/19 03:20:43;;;;;;;0.40;0.40;;;15.80;76.90;;;;;;5070232;28;20184;-74
2021/08/19 03:23:09;;;;;;;0.60;0.60;;;15.80;76.50;;;;;;5052107;28;20182;-75
2021/08/19 03:25:35;;;;;;;0.85;0.65;;;15.80;76.50;;;;;;5052770;28;20270;-73
2021/08/19 03:28:03;;;;;;;1.10;0.73;;;15.80;76.60;;;;;;5053901;28;20254;-74
2021/08/19 03:30:29;;;;;;;0.93;0.60;;;15.80;76.90;;;;;;5068847;28;20270;-74
2021/08/19 03:32:54;;;;;;;0.95;0.60;;;15.80;76.70;;;;;;5049316;28;20186;-74
2021/08/19 03:35:21;;;;;;;0.73;0.73;;;15.80;76.40;;;;;;5051639;28;20215;-74
2021/08/19 03:37:47;;;;;;;0.55;0.52;;;15.80;76.70;;;;;;5052384;28;20527;-74
2021/08/19 03:40:13;;;;;;;3.47;0.77;;;15.80;76.90;;;;;;5050775;28;20956;-73
2021/08/19 03:42:39;;;;;;;0.70;0.70;;;15.80;76.60;;;;;;5052722;28;20179;-75
2021/08/19 03:45:11;;;;;;;0.50;0.50;;;15.80;76.80;;;;;;5058192;28;20703;-76
2021/08/19 03:47:37;;;;;;;1.85;0.82;;;15.80;76.70;;;;;;5045987;28;20187;-74
2021/08/19 03:50:05;;;;;;;0.63;0.63;;;15.80;76.70;;;;;;5054765;28;21385;-73
2021/08/19 03:52:31;;;;;;;2.40;0.80;;;15.80;76.50;;;;;;5050608;28;20237;-73
2021/08/19 03:54:57;;;;;;;0.73;0.73;;;15.80;76.40;;;;;;5052345;28;20211;-73
2021/08/19 03:57:23;;;;;;;0.85;0.70;;;15.80;76.40;;;;;;5054754;28;20203;-74
2021/08/19 03:59:48;;;;;;;1.05;0.77;;;15.80;76.10;;;;;;5055924;28;20227;-74
2021/08/19 04:02:14;;;;;;;2.30;0.68;;;15.80;76.30;;;;;;5051128;28;21810;-73
2021/08/19 04:04:40;;;;;;;0.70;0.70;;;15.80;76.40;;;;;;5054750;28;20184;-73
2021/08/19 04:07:05;;;;;;;0.60;0.60;;;15.80;76.00;;;;;;5056297;28;20175;-74
2021/08/19 04:09:31;;;;;;;0.57;0.57;;;15.80;76.30;;;;;;5057153;28;20560;-74
2021/08/19 04:11:57;;;;;;;1.48;0.70;;;15.80;76.00;;;;;;5044587;28;20264;-78
2021/08/19 04:14:22;;;;;;;2.55;0.77;;;15.80;76.30;;;;;;5051016;28;20199;-78
2021/08/19 04:16:48;;;;;;;0.70;0.70;;;15.80;76.50;;;;;;5055991;28;20179;-79
2021/08/19 04:19:14;;;;;;;0.90;0.90;;;15.80;76.20;;;;;;5070927;28;20240;-78
2021/08/19 04:21:39;;;;;;;0.50;0.50;;;15.90;76.30;;;;;;5054326;28;20195;-78
2021/08/19 04:24:05;;;;;;;0.88;0.70;;;15.90;76.30;;;;;;5049187;28;20259;-78
2021/08/19 04:26:31;;;;;;;2.30;0.95;;;15.90;76.20;;;;;;5053593;28;20241;-77
2021/08/19 04:28:56;;;;;;;0.70;0.70;;;15.90;76.30;;;;;;5057906;28;20225;-79
2021/08/19 04:31:22;;;;;;;0.60;0.60;;;15.90;76.20;;;;;;5056283;28;20181;-79
2021/08/19 04:33:48;;;;;;;2.78;0.80;;;15.90;75.90;;;;;;5052293;28;20179;-79
2021/08/19 04:36:14;;;;;;;1.00;0.68;;;15.90;75.50;;;;;;5053118;28;20251;-78
2021/08/19 04:38:39;;;;;;;0.75;0.50;;;15.90;75.60;;;;;;5056543;28;20861;-80
2021/08/19 04:41:05;;;;;;;1.98;0.60;;;16.00;75.70;;;;;;5056505;28;20176;-78
2021/08/19 04:43:31;;;;;;;0.80;0.80;;;16.00;75.30;;;;;;5053354;28;20187;-80
2021/08/19 04:45:56;;;;;;;0.80;0.80;;;16.00;75.30;;;;;;5051680;28;20686;-80
2021/08/19 04:48:22;;;;;;;1.10;1.00;;;16.10;75.60;;;;;;5053799;28;20175;-79
2021/08/19 04:50:48;;;;;;;1.60;0.77;;;16.10;75.60;;;;;;5055933;28;20241;-80
2021/08/19 04:53:14;;;;;;;0.57;0.57;;;16.10;75.70;;;;;;5049499;28;20264;-80
2021/08/19 04:55:40;;;;;;;0.90;0.70;;;16.10;75.30;;;;;;5055688;28;20207;-79
2021/08/19 04:58:06;;;;;;;0.73;0.73;;;16.10;75.70;;;;;;5050562;28;20668;-79
2021/08/19 05:00:32;;;;;;;1.95;0.85;;;16.10;75.60;;;;;;5052704;28;20801;-77
2021/08/19 05:02:57;;;;;;;1.25;0.80;;;16.10;75.30;;;;;;5047359;28;20230;-77
2021/08/19 05:05:23;;;;;;;0.68;0.68;;;16.20;75.40;;;;;;5058449;28;20186;-77
2021/08/19 05:07:49;;;;;;;0.70;0.70;;;16.20;75.80;;;;;;5056914;28;20182;-77
2021/08/19 05:10:14;;;;;;;0.60;0.60;;;16.20;75.30;;;;;;5052612;28;20232;-77
2021/08/19 05:12:40;;;;;;;0.60;0.60;;;16.20;75.40;;;;;;5043573;28;20179;-78
2021/08/19 05:15:06;;;;;;;0.70;0.55;;;16.20;75.60;;;;;;5046558;28;20625;-74
2021/08/19 05:17:32;;;;;;;1.42;1.00;;;16.30;75.40;;;;;;5056007;28;20176;-78
2021/08/19 05:19:57;;;;;;;0.75;0.70;;;16.30;75.10;;;;;;5050504;28;20191;-75
2021/08/19 05:22:23;;;;;;;0.60;0.60;;;16.30;75.00;;;;;;5054456;28;20179;-76
2021/08/19 05:24:49;;;;;;;0.70;0.70;;;16.40;74.90;;;;;;5055067;28;20184;-77
2021/08/19 05:27:14;;;;;;;3.80;0.88;;;16.40;74.70;;;;;;5053294;28;20187;-77
2021/08/19 05:29:40;;;;;;;3.22;0.77;;;16.50;74.70;;;;;;5055301;28;20205;-77
2021/08/19 05:32:06;;;;;;;1.20;0.85;;;16.50;75.20;;;;;;5048009;28;20184;-77
2021/08/19 05:34:32;;;;;;;7.53;0.85;;;16.50;75.30;;;;;;5050856;28;20808;-76
2021/08/19 05:36:58;;;;;;;0.70;0.70;;;16.50;74.50;;;;;;5046584;28;20271;-75
2021/08/19 05:39:23;;;;;;;1.20;0.70;;;16.60;74.50;;;;;;5047953;28;20184;-76
2021/08/19 05:41:49;;;;;;;0.73;0.73;;;16.60;74.40;;;;;;5045241;28;20187;-78
2021/08/19 05:44:15;;;;;;;0.90;0.80;;;16.60;74.50;;;;;;5047880;28;20184;-76
2021/08/19 05:46:41;;;;;;;0.75;0.75;;;16.60;74.50;;;;;;5042184;28;20183;-76
2021/08/19 05:49:09;;;;;;;5.07;1.10;;;16.60;74.70;;;;;;5049373;28;21032;-77
2021/08/19 05:51:35;;;;;;;0.85;0.85;;;16.60;74.10;;;;;;5048606;28;20642;-76
2021/08/19 05:54:01;;;;;;;1.70;1.63;;;16.60;73.90;;;;;;5045606;28;20271;-76
2021/08/19 05:56:27;;;;;;;1.05;1.00;;;16.70;74.60;;;;;;5051571;28;20226;-76
2021/08/19 05:58:52;;;;;;;1.80;1.05;;;16.70;73.90;;;;;;5044752;28;20233;-77
2021/08/19 06:01:18;;;;;;;1.77;0.60;;;16.70;74.40;;;;;;5047918;28;20279;-76
2021/08/19 06:03:44;;;;;;;0.73;0.73;;;16.80;74.20;;;;;;5047608;28;20863;-77
2021/08/19 06:06:15;;;;;;;1.38;0.80;;;16.90;74.30;;;;;;5049774;28;20210;-77
2021/08/19 06:08:41;;;;;;;0.80;0.80;;;16.90;74.10;;;;;;5051813;28;20543;-77
2021/08/19 06:11:06;;;;;;;1.15;1.00;;;16.90;74.50;;;;;;5047946;28;20176;-77
2021/08/19 06:13:32;;;;;;;1.52;0.70;;;17.00;74.70;;;;;;5042975;28;20202;-75
2021/08/19 06:15:58;;;;;;;0.98;0.88;;;17.00;74.10;;;;;;5046291;28;20605;-75
2021/08/19 06:18:23;;;;;;;0.70;0.70;;;17.00;74.30;;;;;;5049213;28;20183;-75
2021/08/19 06:20:49;;;;;;;0.90;0.90;;;17.10;74.50;;;;;;5046350;28;20182;-76
2021/08/19 06:23:15;;;;;;;1.27;0.90;;;17.10;74.10;;;;;;5048188;28;20179;-76
2021/08/19 06:25:42;;;;;;;1.13;0.93;;;17.10;74.80;;;;;;5045560;28;20194;-76
2021/08/19 06:28:08;;;;;;;0.55;0.55;;;17.20;74.30;;;;;;5045686;28;20856;-75
2021/08/19 06:30:34;;;;;;;1.90;1.00;;;17.20;74.30;;;;;;5047362;28;20183;-75
2021/08/19 06:33:01;;;;;;;0.77;0.75;;;17.20;74.10;;;;;;5050393;28;20178;-75
2021/08/19 06:35:27;;;;;;;0.70;0.70;;;17.20;74.10;;;;;;5048695;28;20210;-76
2021/08/19 06:37:54;;;;;;;1.65;1.00;;;17.30;73.90;;;;;;5052738;28;20188;-76
2021/08/19 06:40:21;;;;;;;0.70;0.70;;;17.30;73.70;;;;;;5052724;28;20230;-78
2021/08/19 06:42:47;;;;;;;0.70;0.70;;;17.40;73.50;;;;;;5042784;28;20261;-74
2021/08/19 06:45:13;;;;;;;0.80;0.80;;;17.50;73.30;;;;;;5046378;28;20807;-76
2021/08/19 06:47:39;;;;;;;0.80;0.75;;;17.60;72.30;;;;;;5053451;28;20186;-77
2021/08/19 06:50:06;;;;;;;2.83;0.55;;;17.60;72.30;;;;;;5052821;28;20179;-78
2021/08/19 06:52:32;;;;;;;0.75;0.75;;;17.70;72.30;;;;;;5042741;28;20222;-79
2021/08/19 06:54:59;;;;;;;0.60;0.60;;;17.80;72.20;;;;;;5039292;28;20269;-76
2021/08/19 06:57:25;;;;;;;0.90;0.88;;;17.80;71.90;;;;;;5049763;28;20626;-78
2021/08/19 06:59:51;;;;;;;0.80;0.80;;;17.80;71.70;;;;;;5056944;28;20199;-80
2021/08/19 07:02:17;;;;;;;1.48;0.77;;;17.90;71.40;;;;;;5046531;28;20631;-78
2021/08/19 07:04:42;;;;;;;0.55;0.55;;;17.90;70.70;;;;;;5042250;28;20193;-79
2021/08/19 07:07:08;;;;;;;1.20;1.20;;;17.90;70.50;;;;;;5051973;28;20677;-76
2021/08/19 07:09:34;;;;;;;1.52;0.85;;;18.00;71.30;;;;;;5053005;28;20180;-77
2021/08/19 07:12:00;;;;;;;1.05;0.90;;;18.00;71.40;;;;;;5048571;28;20221;-78
2021/08/19 07:14:25;;;;;;;1.35;1.25;;;18.10;71.40;;;;;;5047362;28;20193;-77
2021/08/19 07:16:51;;;;;;;1.40;0.85;;;18.10;71.10;;;;;;5054278;28;20187;-77
2021/08/19 07:19:17;;;;;;;0.80;0.80;;;18.20;71.10;;;;;;5053749;28;20428;-78
2021/08/19 07:21:45;;;;;;;1.00;0.98;;;18.30;71.00;;;;;;5046033;28;20263;-78
2021/08/19 07:24:11;;;;;;;0.70;0.70;;;18.30;70.40;;;;;;5053513;28;20180;-78
2021/08/19 07:26:37;;;;;;;1.65;0.98;;;18.40;70.50;;;;;;5049158;28;20210;-77
2021/08/19 07:29:03;;;;;;;0.82;0.82;;;18.40;70.80;;;;;;5053159;28;20179;-77
2021/08/19 07:31:29;;;;;;;0.88;0.77;;;18.50;70.10;;;;;;5053415;28;20179;-78
2021/08/19 07:33:54;;;;;;;0.82;0.82;;;18.60;70.20;;;;;;5044868;28;20257;-78
2021/08/19 07:36:21;;;;;;;0.55;0.55;;;18.70;70.20;;;;;;5051332;28;20694;-78
2021/08/19 07:38:47;;;;;;;0.63;0.63;;;18.80;70.20;;;;;;5048126;28;20179;-79
2021/08/19 07:41:13;;;;;;;1.55;0.75;;;18.80;69.80;;;;;;5057273;28;20198;-78
2021/08/19 07:43:39;;;;;;;1.27;1.17;;;18.90;69.10;;;;;;5046806;28;20658;-78
2021/08/19 07:46:04;;;;;;;0.90;0.90;;;19.00;69.30;;;;;;5048771;28;20696;-77
2021/08/19 07:48:30;;;;;;;1.10;0.80;;;19.10;69.20;;;;;;5057435;28;20190;-77
2021/08/19 07:50:56;;;;;;;2.90;0.82;;;19.10;68.80;;;;;;5047540;28;20274;-78
2021/08/19 07:53:23;;;;;;;0.60;0.60;;;19.10;67.00;;;;;;5055428;28;20191;-79
2021/08/19 07:55:49;;;;;;;3.22;0.93;;;19.20;67.10;;;;;;5057525;28;20280;-77
2021/08/19 07:58:15;;;;;;;0.68;0.68;;;19.20;67.90;;;;;;5054245;28;20187;-79
2021/08/19 08:00:40;;;;;;;0.90;0.90;;;19.30;67.50;;;;;;5054302;28;20183;-78
2021/08/19 08:03:06;;;;;;;0.85;0.85;;;19.30;68.10;;;;;;5048554;28;20213;-78
2021/08/19 08:05:33;;;;;;;3.33;1.00;;;19.40;67.60;;;;;;5045829;28;20673;-78
2021/08/19 08:08:06;;;;;;;1.48;0.82;;;19.40;67.80;;;;;;5052831;28;20278;-78
2021/08/19 08:10:32;;;;;;;1.00;1.00;;;19.60;68.00;;;;;;5047807;28;20264;-79
2021/08/19 08:12:58;;;;;;;0.85;0.85;;;19.60;68.00;;;;;;5056763;28;20187;-78
2021/08/19 08:15:25;;;;;;;1.63;0.80;;;19.70;68.00;;;;;;5046587;28;20696;-79
2021/08/19 08:17:50;;;;;;;0.80;0.80;;;19.90;67.70;;;;;;5058845;28;20175;-80
2021/08/19 08:20:17;;;;;;;0.68;0.68;;;19.90;66.90;;;;;;5055262;28;20238;-78
2021/08/19 08:22:45;;;;;;;0.60;0.60;;;20.00;67.20;;;;;;5051530;28;20736;-77
2021/08/19 08:25:11;;;;;;;1.20;0.90;;;20.10;67.00;;;;;;5053448;28;20233;-76
2021/08/19 08:27:48;;;;;;;2.40;0.77;;;20.20;66.60;;;;;;5042572;28;20187;-76
2021/08/19 08:30:14;;;;;;;1.02;1.00;;;20.30;66.60;;;;;;5048820;28;20972;-75
2021/08/19 08:32:39;;;;;;;0.70;0.70;;;20.40;65.80;;;;;;5053794;28;20252;-76
2021/08/19 08:35:07;;;;;;;0.75;0.75;;;20.50;64.30;;;;;;5053584;28;20213;-76
2021/08/19 08:37:33;;;;;;;0.90;0.90;;;20.50;64.90;;;;;;5049871;28;20183;-76
2021/08/19 08:39:58;;;;;;;2.25;0.68;;;20.50;64.60;;;;;;5050358;28;20186;-77
2021/08/19 08:42:27;;;;;;;0.75;0.75;;;20.60;64.20;;;;;;5050723;28;20179;-75
2021/08/19 08:44:53;;;;;;;0.90;0.90;;;20.60;63.80;;;;;;5047037;28;20187;-75
2021/08/19 08:47:19;;;;;;;0.80;0.80;;;20.70;64.80;;;;;;5052902;28;20172;-76
2021/08/19 08:49:46;;;;;;;1.40;1.15;;;20.80;64.70;;;;;;5054935;28;20268;-74
2021/08/19 08:52:12;;;;;;;0.73;0.73;;;20.90;65.10;;;;;;5055756;28;20191;-74
2021/08/19 08:54:37;;;;;;;1.45;1.27;;;21.10;64.50;;;;;;5052114;28;20578;-75
2021/08/19 08:57:03;;;;;;;0.68;0.60;;;21.10;62.80;;;;;;5049187;28;20207;-75
2021/08/19 08:59:29;;;;;;;0.60;0.60;;;21.30;64.50;;;;;;5052051;28;20786;-75
2021/08/19 09:01:55;;;;;;;1.33;1.10;;;21.40;63.90;;;;;;5058158;28;20183;-75
2021/08/19 09:04:23;;;;;;;1.20;1.15;;;21.60;63.90;;;;;;5051614;28;20209;-75
2021/08/19 09:06:49;;;;;;;0.73;0.55;;;21.80;63.70;;;;;;5049069;28;20180;-78
2021/08/19 09:09:23;;;;;;;0.85;0.85;;;22.00;63.60;;;;;;5050523;28;20233;-75
2021/08/19 09:12:16;;;;;;;0.60;0.60;;;22.20;61.80;;;;;;5052506;28;20660;-75
2021/08/19 09:14:42;;;;;;;0.70;0.70;;;22.50;60.90;;;;;;5054922;28;20190;-75
2021/08/19 09:17:08;;;;;;;0.47;0.47;;;22.80;60.60;;;;;;5052963;28;20175;-76
2021/08/19 09:19:35;;;;;;;0.47;0.47;;;23.00;58.60;;;;;;5053467;28;20177;-76
2021/08/19 09:22:04;;;;;;;0.47;0.47;;;23.30;58.00;;;;;;5050609;28;20195;-75
2021/08/19 09:24:35;;;;;;;0.60;0.60;;;23.60;57.60;;;;;;5053218;28;20179;-75
2021/08/19 09:27:15;;;;;;;0.60;0.60;;;24.00;56.70;;;;;;5054221;28;20265;-76
2021/08/19 09:29:42;;;;;;;1.17;0.70;;;24.60;56.10;;;;;;5052498;28;20552;-76
2021/08/19 09:32:19;;;;;;;0.85;0.80;;;25.00;55.30;;;;;;5053766;28;20722;-76
2021/08/19 09:34:48;;;;;;;0.80;0.70;;;25.70;55.00;;;;;;5049679;28;20175;-76
2021/08/19 09:37:16;;;;;;;0.70;0.70;;;26.30;54.00;;;;;;5051508;28;20245;-74
2021/08/19 09:39:54;;;;;;;0.40;0.40;;;27.00;52.90;;;;;;5049581;28;20214;-75
2021/08/19 09:42:37;;;;;;;0.85;0.50;;;27.60;50.80;;;;;;5054726;28;20675;-75
2021/08/19 09:45:20;;;;;;;0.88;0.60;;;28.30;51.20;;;;;;5051022;28;20175;-75
2021/08/19 09:47:47;;;;;;;1.52;0.50;;;29.20;49.90;;;;;;5053858;28;20187;-75
2021/08/19 09:50:17;;;;;;;0.65;0.60;;;29.90;48.70;;;;;;5052870;28;20230;-75
2021/08/19 09:52:45;;;;;;;0.60;0.60;;;30.80;48.20;;;;;;5049266;28;20271;-75
2021/08/19 09:55:22;;;;;;;1.50;0.50;;;31.60;47.90;;;;;;5056093;28;20199;-75
2021/08/19 09:57:48;;;;;;;0.47;0.47;;;32.30;46.40;;;;;;5053635;28;20191;-75
2021/08/19 10:00:31;;;;;;;0.60;0.50;;;32.90;46.00;;;;;;5053614;28;20175;-75
2021/08/19 10:02:58;;;;;;;2.47;0.80;;;33.70;43.60;;;;;;5051804;28;20214;-75
2021/08/19 10:05:24;;;;;;;0.50;0.50;;;34.20;45.10;;;;;;5055768;28;20180;-75
2021/08/19 10:07:50;;;;;;;0.70;0.70;;;34.40;43.50;;;;;;5053875;28;20175;-75
2021/08/19 10:10:16;;;;;;;4.88;0.70;;;34.60;43.60;;;;;;5054613;28;20306;-75
2021/08/19 10:12:45;;;;;;;0.57;0.57;;;35.10;43.00;;;;;;5053852;28;21064;-75
2021/08/19 10:15:12;;;;;;;0.68;0.65;;;35.70;42.30;;;;;;5051039;28;20252;-75
2021/08/19 10:17:47;;;;;;;0.40;0.40;;;36.20;41.60;;;;;;5050940;28;20206;-75
2021/08/19 10:20:19;;;;;;;0.40;0.40;;;36.50;42.60;;;;;;5052592;28;20695;-75
2021/08/19 10:22:47;;;;;;;0.50;0.50;;;36.60;40.20;;;;;;5054348;28;20202;-75
2021/08/19 10:25:14;;;;;;;0.70;0.70;;;36.90;41.10;;;;;;5052326;28;20363;-75
2021/08/19 10:27:39;;;;;;;0.70;0.70;;;37.20;40.60;;;;;;5052031;28;20182;-75
2021/08/19 10:30:07;;;;;;;2.85;0.60;;;37.60;41.80;;;;;;5057800;28;20179;-75
2021/08/19 10:32:49;;;;;;;0.47;0.47;;;37.90;41.20;;;;;;5054087;28;20204;-75
2021/08/19 10:35:15;;;;;;;0.80;0.45;;;38.20;41.80;;;;;;5053446;28;20207;-75
2021/08/19 10:37:49;;;;;;;0.50;0.50;;;38.50;40.30;;;;;;5052438;28;20695;-75
2021/08/19 10:40:24;;;;;;;0.43;0.43;;;38.70;36.70;;;;;;5055577;28;20170;-75
2021/08/19 10:42:57;;;;;;;0.55;0.55;;;38.80;36.40;;;;;;5048471;28;20185;-75
2021/08/19 10:45:29;;;;;;;0.50;0.50;;;39.00;38.30;;;;;;5054581;28;20568;-75
2021/08/19 10:48:14;;;;;;;0.30;0.30;;;39.30;39.30;;;;;;5053404;28;20695;-76
2021/08/19 10:50:43;;;;;;;0.95;0.57;;;39.40;35.80;;;;;;5047052;28;20184;-76
2021/08/19 10:53:14;;;;;;;0.40;0.40;;;39.10;36.60;;;;;;5057592;28;20178;-76
2021/08/19 10:55:44;;;;;;;1.50;0.60;;;39.10;38.10;;;;;;5054010;28;20237;-75
2021/08/19 10:58:22;;;;;;;1.08;0.40;;;39.30;38.80;;;;;;5047240;28;20178;-76
2021/08/19 11:00:48;;;;;;;0.52;0.52;;;39.80;37.70;;;;;;5051462;28;20175;-75
2021/08/19 11:03:36;;;;;;;0.52;0.52;;;40.40;37.70;;;;;;5056124;28;20174;-75
2021/08/19 11:06:06;;;;;;;0.50;0.50;;;40.90;35.30;;;;;;5049446;28;20179;-76
2021/08/19 11:09:12;;;;;;;0.45;0.45;;;41.30;38.40;;;;;;5065462;28;20907;-75
2021/08/19 11:11:38;;;;;;;0.82;0.60;;;41.80;35.30;;;;;;5032000;28;20637;-75
2021/08/19 11:14:08;;;;;;;1.98;0.50;;;42.30;36.80;;;;;;5027428;28;20199;-75
2021/08/19 11:16:36;;;;;;;0.40;0.40;;;42.60;36.00;;;;;;5026811;28;20235;-76
2021/08/19 11:19:16;;;;;;;3.20;0.60;;;42.90;37.70;;;;;;5028792;28;20179;-75
2021/08/19 11:21:47;;;;;;;0.55;0.55;;;43.00;35.40;;;;;;5018601;28;20196;-75
2021/08/19 11:24:13;;;;;;;0.80;0.80;;;43.10;37.60;;;;;;5015911;28;20187;-78
2021/08/19 11:26:39;;;;;;;0.55;0.55;;;42.90;37.20;;;;;;5031227;28;20265;-77
2021/08/19 11:29:04;;;;;;;0.57;0.52;;;42.40;37.30;;;;;;5029241;28;20693;-77
2021/08/19 11:31:31;;;;;;;0.55;0.50;;;42.00;36.10;;;;;;5017361;28;21566;-77
2021/08/19 11:34:02;;;;;;;2.40;0.63;;;42.00;36.90;;;;;;5028786;28;20272;-76
2021/08/19 11:36:28;;;;;;;0.50;0.50;;;42.10;36.70;;;;;;5013712;28;21128;-77
2021/08/19 11:38:59;;;;;;;0.50;0.50;;;41.90;37.10;;;;;;5024178;28;20188;-77
2021/08/19 11:41:26;;;;;;;0.50;0.50;;;41.90;37.30;;;;;;5031728;28;20199;-77
2021/08/19 11:44:01;;;;;;;0.50;0.50;;;42.10;37.60;;;;;;5023531;28;20195;-75
2021/08/19 11:46:28;;;;;;;0.57;0.57;;;42.20;36.30;;;;;;5022470;28;20662;-76
2021/08/19 11:48:55;;;;;;;3.22;0.60;;;42.10;36.60;;;;;;5071308;28;20204;-77
2021/08/19 11:51:35;;;;;;;0.65;0.65;;;42.00;37.20;;;;;;5075954;28;20216;-77
2021/08/19 11:54:11;;;;;;;0.60;0.57;;;41.90;35.10;;;;;;5068822;28;20794;-76
2021/08/19 11:56:39;;;;;;;0.80;0.80;;;42.10;37.50;;;;;;5076595;28;20213;-77
2021/08/19 11:59:11;;;;;;;0.60;0.60;;;41.90;37.10;;;;;;5071010;28;20207;-76
2021/08/19 12:01:40;;;;;;;1.73;0.73;;;41.80;36.20;;;;;;5066422;28;20187;-75
2021/08/19 12:04:08;;;;;;;0.70;0.70;;;42.00;36.10;;;;;;5069864;28;20186;-77
2021/08/19 12:06:34;;;;;;;1.75;0.80;;;41.80;37.00;;;;;;5065702;28;20185;-77
2021/08/19 12:09:06;;;;;;;0.70;0.70;;;41.70;35.70;;;;;;5066182;28;20183;-77
2021/08/19 12:11:39;;;;;;;0.70;0.70;;;41.90;35.60;;;;;;5074059;28;20187;-77
2021/08/19 12:14:08;;;;;;;0.63;0.63;;;42.00;35.10;;;;;;5071994;28;20280;-75
2021/08/19 12:16:35;;;;;;;3.45;0.60;;;42.00;36.10;;;;;;5072664;28;20278;-76
2021/08/19 12:19:19;;;;;;;0.70;0.70;;;41.70;35.60;;;;;;5070477;28;20173;-76
2021/08/19 12:21:48;;;;;;;1.08;0.63;;;41.40;35.60;;;;;;5073593;28;20206;-76
2021/08/19 12:24:38;;;;;;;0.70;0.70;;;41.30;35.50;;;;;;5069048;28;20264;-76
2021/08/19 12:27:07;;;;;;;0.70;0.70;;;41.20;35.80;;;;;;5068010;28;20174;-77
2021/08/19 12:29:36;;;;;;;0.60;0.60;;;41.30;36.60;;;;;;5074023;28;20232;-77
2021/08/19 12:32:02;;;;;;;1.45;0.65;;;41.40;36.70;;;;;;5070323;28;20630;-76
2021/08/19 12:34:29;;;;;;;1.58;0.90;;;41.60;36.60;;;;;;5072292;28;20270;-77
2021/08/19 12:37:06;;;;;;;0.88;0.88;;;42.00;36.40;;;;;;5067866;28;20245;-77
2021/08/19 12:39:36;;;;;;;0.85;0.85;;;42.20;35.50;;;;;;5073863;28;20577;-76
2021/08/19 12:42:08;;;;;;;0.85;0.85;;;42.00;36.80;;;;;;5071615;28;20178;-77
2021/08/19 12:44:35;;;;;;;0.60;0.60;;;41.70;35.70;;;;;;5070990;28;20190;-76
2021/08/19 12:47:01;;;;;;;1.70;0.95;;;41.60;34.80;;;;;;5067647;28;20732;-75
2021/08/19 12:49:35;;;;;;;0.85;0.73;;;41.70;36.40;;;;;;5077229;28;20185;-76